createdAt,value
2024-03-16T00:01:40.007Z,41.80
2024-03-16T00:04:09.298Z,42.50
2024-03-16T00:06:38.822Z,40.30
2024-03-16T00:09:09.113Z,42.20
2024-03-16T00:11:38.244Z,46.20
2024-03-16T00:14:07.446Z,51.30
2024-03-16T00:16:36.595Z,46.80
2024-03-16T00:19:05.448Z,48.30
2024-03-16T00:21:34.755Z,49.70
2024-03-16T00:24:03.922Z,46.40
2024-03-16T00:26:32.907Z,47.40
2024-03-16T00:29:01.849Z,50.30
2024-03-16T00:31:30.861Z,58.90
2024-03-16T00:33:59.598Z,55.20
2024-03-16T00:36:28.564Z,50.90
2024-03-16T00:38:58.344Z,50.90
2024-03-16T00:41:27.784Z,48.80
2024-03-16T00:43:56.853Z,42.10
2024-03-16T00:46:26.209Z,45.50
2024-03-16T00:48:55.107Z,46.90
2024-03-16T00:51:24.305Z,44.80
2024-03-16T00:53:53.119Z,44.80
2024-03-16T00:56:22.343Z,47.80
2024-03-16T00:58:51.624Z,46.90
2024-03-16T01:01:21.221Z,45.20
2024-03-16T01:03:50.468Z,42.70
2024-03-16T01:06:19.539Z,42.50
2024-03-16T01:08:48.414Z,41.90
2024-03-16T01:11:17.253Z,41.30
2024-03-16T01:13:46.498Z,39.60
2024-03-16T01:16:15.823Z,44.70
2024-03-16T01:18:45.369Z,40.90
2024-03-16T01:21:14.199Z,43.80
2024-03-16T01:23:43.391Z,37.80
2024-03-16T01:26:12.389Z,38.90
2024-03-16T01:28:41.677Z,40.30
2024-03-16T01:31:12.644Z,37.70
2024-03-16T01:33:43.402Z,38.10
2024-03-16T01:36:12.756Z,38.80
2024-03-16T01:38:41.976Z,39.20
2024-03-16T01:41:11.942Z,39.20
2024-03-16T01:43:40.871Z,31.70
2024-03-16T01:46:10.708Z,33.40
2024-03-16T01:48:39.904Z,33.40
2024-03-16T01:51:08.888Z,31.40
2024-03-16T01:53:39.483Z,26.50
2024-03-16T01:56:08.396Z,32.70
2024-03-16T01:58:42.350Z,31.80
2024-03-16T02:01:11.279Z,26.20
2024-03-16T02:03:42.048Z,23.80
2024-03-16T02:06:11.206Z,19.50
2024-03-16T02:08:40.709Z,20.70
2024-03-16T02:11:09.664Z,22.40
2024-03-16T02:13:38.692Z,23.40
2024-03-16T02:16:07.657Z,22.00
2024-03-16T02:18:36.742Z,19.30
2024-03-16T02:21:13.278Z,18.00
2024-03-16T02:23:42.242Z,18.10
2024-03-16T02:26:12.710Z,17.20
2024-03-16T02:28:42.172Z,17.20
2024-03-16T02:31:11.354Z,17.70
2024-03-16T02:33:40.230Z,16.90
2024-03-16T02:36:09.397Z,17.50
2024-03-16T02:38:41.843Z,17.90
2024-03-16T02:41:10.750Z,16.40
2024-03-16T02:43:39.935Z,17.30
2024-03-16T02:46:08.878Z,18.90
2024-03-16T02:48:37.734Z,16.00
2024-03-16T02:51:07.677Z,15.70
2024-03-16T02:53:36.461Z,14.60
2024-03-16T02:56:05.691Z,14.40
2024-03-16T02:58:34.510Z,14.00
2024-03-16T03:01:03.872Z,14.90
2024-03-16T03:03:32.906Z,14.20
2024-03-16T03:06:02.142Z,13.30
2024-03-16T03:08:33.429Z,13.20
2024-03-16T03:11:05.156Z,15.70
2024-03-16T03:13:34.267Z,15.50
2024-03-16T03:16:03.659Z,13.10
2024-03-16T03:18:32.567Z,13.10
2024-03-16T03:21:01.890Z,13.50
2024-03-16T03:23:30.797Z,11.60
2024-03-16T03:26:00.364Z,12.90
2024-03-16T03:28:29.216Z,13.80
2024-03-16T03:30:58.438Z,12.10
2024-03-16T03:33:27.347Z,11.10
2024-03-16T03:35:56.613Z,9.80
2024-03-16T03:38:25.626Z,11.40
2024-03-16T03:40:54.458Z,11.50
2024-03-16T03:43:24.031Z,11.10
2024-03-16T03:45:53.494Z,9.90
2024-03-16T03:48:37.319Z,13.50
2024-03-16T03:51:06.689Z,10.20
2024-03-16T03:53:35.468Z,12.30
2024-03-16T03:56:04.761Z,9.70
2024-03-16T03:58:33.645Z,10.10
2024-03-16T04:01:02.903Z,11.70
2024-03-16T04:03:32.059Z,11.00
2024-03-16T04:06:01.235Z,11.10
2024-03-16T04:08:30.125Z,11.30
2024-03-16T04:10:59.034Z,12.50
2024-03-16T04:13:28.155Z,10.10
2024-03-16T04:15:57.203Z,10.80
2024-03-16T04:18:26.071Z,10.30
2024-03-16T04:20:55.088Z,11.20
2024-03-16T04:23:23.877Z,9.70
2024-03-16T04:25:52.762Z,9.40
2024-03-16T04:28:21.865Z,8.80
2024-03-16T04:30:50.968Z,8.90
2024-03-16T04:33:20.051Z,9.10
2024-03-16T04:35:48.990Z,8.20
2024-03-16T04:38:18.749Z,7.60
2024-03-16T04:40:47.854Z,8.90
2024-03-16T04:43:17.662Z,9.20
2024-03-16T04:45:49.398Z,9.00
2024-03-16T04:50:49.211Z,9.90
2024-03-16T04:53:18.026Z,9.80
2024-03-16T04:55:46.952Z,10.50
2024-03-16T04:58:15.796Z,11.60
2024-03-16T05:00:44.614Z,11.30
2024-03-16T05:03:14.113Z,11.40
2024-03-16T05:05:43.373Z,20.70
2024-03-16T05:08:13.304Z,10.70
2024-03-16T05:10:42.225Z,11.10
2024-03-16T05:13:10.994Z,9.70
2024-03-16T05:15:39.987Z,13.10
2024-03-16T05:18:09.124Z,12.50
2024-03-16T05:20:38.074Z,9.90
2024-03-16T05:23:06.824Z,10.00
2024-03-16T05:25:36.049Z,11.20
2024-03-16T05:28:05.494Z,11.90
2024-03-16T05:30:34.344Z,11.00
2024-03-16T05:33:03.838Z,10.10
2024-03-16T05:35:33.060Z,11.40
2024-03-16T05:38:01.988Z,11.50
2024-03-16T05:40:30.884Z,10.60
2024-03-16T05:42:59.889Z,11.20
2024-03-16T05:45:28.837Z,10.20
2024-03-16T05:47:57.770Z,13.10
2024-03-16T05:50:26.903Z,11.10
2024-03-16T05:52:55.520Z,10.50
2024-03-16T05:55:24.321Z,13.80
2024-03-16T05:57:53.255Z,10.10
2024-03-16T06:00:24.110Z,10.90
2024-03-16T06:02:53.099Z,9.40
2024-03-16T06:05:21.982Z,9.90
2024-03-16T06:07:50.770Z,10.90
2024-03-16T06:10:19.889Z,10.20
2024-03-16T06:12:48.892Z,17.90
2024-03-16T06:15:17.644Z,10.90
2024-03-16T06:17:47.471Z,13.30
2024-03-16T06:20:18.126Z,11.30
2024-03-16T06:22:47.074Z,12.00
2024-03-16T06:25:16.113Z,11.50
2024-03-16T06:27:50.540Z,15.10
2024-03-16T06:30:22.967Z,12.50
2024-03-16T06:33:07.354Z,15.90
2024-03-16T06:35:43.197Z,11.40
2024-03-16T06:38:12.262Z,13.70
2024-03-16T06:40:41.184Z,10.90
2024-03-16T06:43:10.216Z,10.80
2024-03-16T06:45:39.902Z,13.50
2024-03-16T06:48:08.799Z,11.80
2024-03-16T06:50:37.936Z,11.00
2024-03-16T06:53:07.796Z,10.50
2024-03-16T06:55:37.092Z,16.10
2024-03-16T06:58:05.990Z,13.70
2024-03-16T07:00:37.233Z,12.70
2024-03-16T07:03:07.025Z,11.60
2024-03-16T07:05:36.026Z,12.80
2024-03-16T07:08:05.491Z,12.50
2024-03-16T07:10:34.224Z,12.90
2024-03-16T07:13:03.051Z,12.90
2024-03-16T07:15:35.841Z,12.60
2024-03-16T07:18:05.321Z,13.90
2024-03-16T07:20:35.163Z,19.20
2024-03-16T07:23:04.208Z,19.60
2024-03-16T07:25:33.043Z,18.30
2024-03-16T07:28:02.157Z,13.50
2024-03-16T07:30:31.126Z,79.30
2024-03-16T07:32:59.845Z,13.80
2024-03-16T07:35:29.389Z,10.90
2024-03-16T07:37:58.531Z,11.50
2024-03-16T07:40:27.223Z,10.60
2024-03-16T07:42:57.093Z,12.00
2024-03-16T07:45:25.956Z,10.50
2024-03-16T07:47:54.516Z,9.50
2024-03-16T07:50:23.428Z,7.70
2024-03-16T07:52:52.381Z,12.60
2024-03-16T07:55:21.054Z,11.10
2024-03-16T07:57:50.207Z,9.30
2024-03-16T08:00:19.263Z,9.00
2024-03-16T08:02:48.047Z,10.60
2024-03-16T08:05:16.802Z,9.20
2024-03-16T08:07:45.642Z,11.50
2024-03-16T08:10:15.027Z,12.30
2024-03-16T08:12:45.814Z,10.40
2024-03-16T08:15:14.584Z,8.90
2024-03-16T08:17:43.260Z,7.20
2024-03-16T08:20:16.296Z,7.90
2024-03-16T08:22:49.480Z,9.50
2024-03-16T08:25:18.741Z,11.20
2024-03-16T08:27:47.843Z,14.50
2024-03-16T08:30:16.602Z,13.20
2024-03-16T08:32:45.326Z,14.30
2024-03-16T08:35:14.049Z,8.40
2024-03-16T08:37:42.966Z,10.00
2024-03-16T08:40:15.026Z,10.30
2024-03-16T08:42:43.930Z,11.70
2024-03-16T08:45:12.784Z,18.90
2024-03-16T08:47:42.762Z,8.30
2024-03-16T08:50:12.109Z,10.10
2024-03-16T08:52:41.086Z,12.80
2024-03-16T08:55:14.802Z,8.60
2024-03-16T08:57:43.700Z,18.00
2024-03-16T09:00:15.927Z,9.30
2024-03-16T09:02:44.813Z,10.50
2024-03-16T09:05:13.969Z,9.70
2024-03-16T09:07:42.938Z,7.50
2024-03-16T09:10:14.805Z,6.90
2024-03-16T09:12:44.393Z,8.30
2024-03-16T09:15:12.958Z,56.40
2024-03-16T09:17:41.804Z,9.70
2024-03-16T09:20:12.163Z,9.50
2024-03-16T09:22:41.627Z,6.50
2024-03-16T09:25:10.777Z,8.60
2024-03-16T09:27:39.649Z,7.60
2024-03-16T09:30:09.985Z,7.10
2024-03-16T09:32:38.961Z,8.70
2024-03-16T09:35:12.304Z,6.30
2024-03-16T09:37:41.151Z,9.60
2024-03-16T09:40:12.071Z,6.60
2024-03-16T09:42:41.268Z,5.40
2024-03-16T09:45:19.497Z,7.50
2024-03-16T09:47:51.162Z,14.80
2024-03-16T09:50:23.080Z,11.00
2024-03-16T09:56:48.086Z,6.50
2024-03-16T09:59:29.750Z,7.10
2024-03-16T10:02:01.187Z,11.30
2024-03-16T10:04:29.860Z,8.40
2024-03-16T10:06:58.603Z,7.00
2024-03-16T10:09:28.821Z,6.20
2024-03-16T10:12:12.846Z,6.60
2024-03-16T10:14:41.673Z,6.50
2024-03-16T10:17:10.262Z,7.10
2024-03-16T10:19:38.956Z,5.30
2024-03-16T10:22:08.023Z,7.80
2024-03-16T10:24:38.406Z,6.60
2024-03-16T10:27:12.837Z,3.90
2024-03-16T10:29:41.614Z,4.90
2024-03-16T10:32:10.604Z,6.10
2024-03-16T10:34:39.254Z,6.30
2024-03-16T10:37:09.384Z,5.00
2024-03-16T10:39:41.032Z,4.80
2024-03-16T10:44:47.514Z,5.00
2024-03-16T10:47:16.274Z,4.70
2024-03-16T10:49:45.019Z,5.90
2024-03-16T10:52:13.717Z,6.80
2024-03-16T10:54:42.517Z,7.90
2024-03-16T10:57:11.417Z,5.70
2024-03-16T10:59:44.832Z,4.20
2024-03-16T11:02:14.960Z,8.50
2024-03-16T11:04:53.036Z,12.10
2024-03-16T11:07:21.831Z,12.00
2024-03-16T11:09:52.479Z,33.40
2024-03-16T11:12:34.367Z,11.40
2024-03-16T11:15:34.284Z,7.90
2024-03-16T11:18:27.310Z,4.30
2024-03-16T11:20:59.024Z,4.00
2024-03-16T11:23:31.068Z,5.30
2024-03-16T11:26:29.496Z,5.20
2024-03-16T11:29:01.328Z,6.20
2024-03-16T11:31:50.214Z,6.10
2024-03-16T11:34:23.565Z,6.10
2024-03-16T11:36:57.956Z,5.30
2024-03-16T11:39:28.509Z,7.70
2024-03-16T11:42:00.607Z,4.00
2024-03-16T11:44:29.636Z,5.00
2024-03-16T11:46:59.019Z,6.60
2024-03-16T11:49:27.663Z,4.50
2024-03-16T11:51:56.407Z,6.70
2024-03-16T11:54:26.316Z,5.70
2024-03-16T11:56:58.626Z,6.80
2024-03-16T11:59:27.629Z,5.40
2024-03-16T12:01:57.692Z,4.80
2024-03-16T12:04:28.575Z,7.00
2024-03-16T12:07:00.427Z,7.20
2024-03-16T12:09:34.789Z,6.00
2024-03-16T12:12:08.964Z,6.90
2024-03-16T12:14:43.210Z,7.60
2024-03-16T12:17:16.317Z,8.80
2024-03-16T12:19:44.936Z,5.20
2024-03-16T12:22:16.640Z,5.60
2024-03-16T12:24:46.700Z,9.00
2024-03-16T12:27:17.850Z,8.20
2024-03-16T12:29:46.619Z,6.20
2024-03-16T12:32:15.337Z,11.50
2024-03-16T12:34:44.094Z,8.00
2024-03-16T12:37:12.718Z,13.20
2024-03-16T12:39:42.096Z,8.40
2024-03-16T12:42:10.921Z,8.60
2024-03-16T12:44:39.550Z,6.40
2024-03-16T12:47:08.246Z,6.60
2024-03-16T12:49:38.134Z,9.20
2024-03-16T12:52:12.062Z,10.20
2024-03-16T12:54:41.646Z,11.70
2024-03-16T12:57:10.690Z,8.60
2024-03-16T12:59:39.534Z,7.60
2024-03-16T13:02:09.235Z,8.00
2024-03-16T13:04:38.196Z,5.30
2024-03-16T13:07:06.849Z,10.00
2024-03-16T13:09:36.678Z,13.60
2024-03-16T13:12:11.878Z,5.70
2024-03-16T13:14:41.104Z,4.90
2024-03-16T13:17:09.832Z,6.90
2024-03-16T13:19:40.649Z,6.30
2024-03-16T13:22:12.310Z,8.40
2024-03-16T13:24:41.070Z,9.20
2024-03-16T13:27:13.108Z,6.20
2024-03-16T13:29:41.785Z,7.70
2024-03-16T13:32:10.770Z,5.20
2024-03-16T13:34:39.358Z,11.40
2024-03-16T13:37:08.119Z,7.90
2024-03-16T13:39:38.563Z,4.60
2024-03-16T13:42:07.356Z,4.60
2024-03-16T13:44:39.258Z,5.00
2024-03-16T13:47:07.966Z,8.00
2024-03-16T13:49:38.130Z,6.10
2024-03-16T13:52:06.858Z,7.10
2024-03-16T13:54:35.584Z,9.40
2024-03-16T13:57:04.573Z,5.80
2024-03-16T13:59:34.029Z,7.10
2024-03-16T14:02:04.015Z,5.60
2024-03-16T14:04:33.190Z,4.60
2024-03-16T14:07:03.226Z,7.00
2024-03-16T14:09:35.897Z,6.90
2024-03-16T14:12:07.131Z,5.70
2024-03-16T14:14:35.734Z,6.40
2024-03-16T14:17:04.415Z,6.10
2024-03-16T14:19:35.479Z,6.60
2024-03-16T14:22:04.679Z,8.20
2024-03-16T14:24:33.731Z,9.80
2024-03-16T14:27:02.466Z,17.90
2024-03-16T14:29:31.146Z,12.70
2024-03-16T14:31:59.883Z,11.20
2024-03-16T14:34:28.933Z,8.60
2024-03-16T14:36:58.163Z,11.80
2024-03-16T14:39:28.980Z,17.60
2024-03-16T14:41:58.482Z,13.40
2024-03-16T14:44:28.376Z,27.10
2024-03-16T14:46:57.117Z,42.30
2024-03-16T14:49:25.903Z,17.10
2024-03-16T14:51:56.299Z,15.80
2024-03-16T14:54:25.030Z,13.40
2024-03-16T14:56:53.663Z,9.90
2024-03-16T14:59:22.239Z,10.00
2024-03-16T15:01:51.637Z,10.00
2024-03-16T15:04:21.344Z,9.30
2024-03-16T15:06:50.014Z,7.10
2024-03-16T15:09:18.615Z,6.10
2024-03-16T15:11:48.060Z,5.50
2024-03-16T15:14:19.324Z,5.90
2024-03-16T15:16:49.362Z,6.10
2024-03-16T15:19:17.929Z,8.20
2024-03-16T15:21:47.747Z,8.20
2024-03-16T15:24:22.885Z,8.10
2024-03-16T15:26:55.986Z,6.50
2024-03-16T15:29:24.696Z,7.00
2024-03-16T15:31:53.306Z,7.00
2024-03-16T15:34:21.917Z,7.40
2024-03-16T15:36:50.750Z,11.60
2024-03-16T15:39:19.515Z,9.00
2024-03-16T15:41:48.206Z,9.70
2024-03-16T15:44:19.876Z,13.50
2024-03-16T15:46:49.089Z,9.50
2024-03-16T15:49:17.854Z,8.80
2024-03-16T15:51:46.521Z,9.60
2024-03-16T15:54:15.215Z,14.90
2024-03-16T15:56:48.214Z,10.50
2024-03-16T15:59:16.879Z,11.90
2024-03-16T16:01:45.768Z,13.90
2024-03-16T16:04:14.445Z,13.80
2024-03-16T16:06:43.361Z,15.80
2024-03-16T16:09:13.013Z,14.50
2024-03-16T16:11:41.802Z,19.00
2024-03-16T16:14:10.481Z,15.10
2024-03-16T16:16:39.545Z,12.50
2024-03-16T16:19:08.271Z,13.60
2024-03-16T16:21:36.918Z,14.50
2024-03-16T16:24:05.981Z,11.10
2024-03-16T16:26:34.704Z,21.20
2024-03-16T16:29:03.425Z,10.40
2024-03-16T16:31:32.539Z,14.00
2024-03-16T16:34:01.324Z,12.90
2024-03-16T16:36:30.186Z,9.50
2024-03-16T16:38:58.795Z,8.10
2024-03-16T16:41:27.553Z,8.30
2024-03-16T16:43:56.193Z,10.70
2024-03-16T16:46:25.574Z,7.30
2024-03-16T16:48:54.233Z,8.10
2024-03-16T16:51:22.878Z,6.60
2024-03-16T16:53:51.673Z,7.50
2024-03-16T16:56:20.252Z,6.10
2024-03-16T16:58:49.166Z,7.90
2024-03-16T17:01:18.171Z,10.20
2024-03-16T17:06:17.274Z,15.40
2024-03-16T17:08:45.964Z,14.60
2024-03-16T17:11:19.329Z,8.60
2024-03-16T17:13:48.118Z,11.90
2024-03-16T17:16:19.488Z,11.10
2024-03-16T17:18:48.136Z,13.10
2024-03-16T17:21:16.960Z,10.90
2024-03-16T17:23:45.677Z,13.80
2024-03-16T17:26:17.077Z,22.90
2024-03-16T17:28:45.718Z,22.10
2024-03-16T17:31:14.340Z,16.40
2024-03-16T17:33:43.045Z,18.30
2024-03-16T17:36:11.666Z,20.10
2024-03-16T17:38:40.533Z,20.80
2024-03-16T17:41:09.980Z,22.40
2024-03-16T17:43:39.365Z,22.70
2024-03-16T17:46:08.483Z,17.80
2024-03-16T17:48:37.548Z,30.00
2024-03-16T17:51:06.203Z,24.30
2024-03-16T17:53:34.884Z,19.90
2024-03-16T17:56:03.774Z,18.60
2024-03-16T17:58:32.560Z,16.40
2024-03-16T18:01:02.209Z,14.30
2024-03-16T18:03:30.908Z,12.80
2024-03-16T18:06:00.009Z,10.10
2024-03-16T18:08:29.301Z,9.80
2024-03-16T18:10:57.962Z,18.30
2024-03-16T18:13:26.650Z,19.70
2024-03-16T18:15:56.256Z,9.50
2024-03-16T18:18:24.939Z,9.50
2024-03-16T18:20:53.751Z,9.30
2024-03-16T18:23:22.482Z,6.40
2024-03-16T18:25:51.249Z,5.30
2024-03-16T18:28:21.051Z,4.50
2024-03-16T18:30:49.636Z,6.80
2024-03-16T18:33:18.904Z,7.50
2024-03-16T18:35:49.318Z,7.10
2024-03-16T18:38:18.057Z,5.00
2024-03-16T18:40:47.677Z,7.50
2024-03-16T18:43:19.662Z,9.60
2024-03-16T18:45:48.415Z,6.30
2024-03-16T18:48:18.943Z,4.90
2024-03-16T18:50:47.747Z,5.00
2024-03-16T18:53:16.754Z,4.40
2024-03-16T18:55:46.041Z,4.20
2024-03-16T18:58:14.764Z,6.20
2024-03-16T19:00:44.854Z,33.20
2024-03-16T19:03:13.846Z,5.30
2024-03-16T19:05:43.318Z,5.20
2024-03-16T19:08:12.037Z,12.50
2024-03-16T19:10:40.961Z,9.20
2024-03-16T19:13:09.837Z,4.10
2024-03-16T19:15:38.811Z,4.40
2024-03-16T19:18:07.580Z,4.60
2024-03-16T19:20:36.770Z,5.00
2024-03-16T19:23:05.694Z,4.60
2024-03-16T19:25:35.000Z,5.80
2024-03-16T19:28:08.279Z,12.00
2024-03-16T19:30:37.816Z,8.60
2024-03-16T19:33:07.474Z,5.10
2024-03-16T19:35:36.223Z,5.20
2024-03-16T19:38:05.300Z,9.00
2024-03-16T19:40:34.099Z,4.20
2024-03-16T19:43:06.260Z,3.50
2024-03-16T19:45:35.695Z,4.20
2024-03-16T19:48:06.800Z,4.90
2024-03-16T19:50:35.460Z,5.20
2024-03-16T19:53:05.571Z,7.10
2024-03-16T19:55:34.134Z,9.50
2024-03-16T19:58:04.196Z,6.20
2024-03-16T20:00:33.597Z,7.10
2024-03-16T20:03:03.281Z,9.70
2024-03-16T20:05:32.440Z,10.00
2024-03-16T20:08:01.171Z,8.10
2024-03-16T20:10:31.269Z,8.40
2024-03-16T20:13:00.032Z,7.90
2024-03-16T20:15:28.978Z,6.30
2024-03-16T20:17:57.667Z,7.70
2024-03-16T20:20:26.377Z,7.70
2024-03-16T20:22:55.005Z,10.40
2024-03-16T20:25:23.567Z,8.70
2024-03-16T20:27:58.493Z,10.90
2024-03-16T20:30:27.300Z,11.90
2024-03-16T20:32:56.948Z,6.60
2024-03-16T20:35:26.739Z,25.50
2024-03-16T20:37:55.519Z,6.50
2024-03-16T20:40:24.305Z,8.10
2024-03-16T20:42:54.211Z,9.80
2024-03-16T20:45:22.944Z,9.20
2024-03-16T20:47:55.210Z,8.50
2024-03-16T20:50:26.268Z,9.70
2024-03-16T20:52:55.544Z,10.70
2024-03-16T20:55:24.231Z,11.90
2024-03-16T20:57:55.722Z,13.80
2024-03-16T21:00:25.331Z,12.60
2024-03-16T21:02:54.134Z,14.30
2024-03-16T21:05:24.543Z,12.40
2024-03-16T21:07:53.310Z,14.80
2024-03-16T21:10:21.933Z,12.00
2024-03-16T21:12:52.969Z,13.30
2024-03-16T21:15:21.605Z,13.50
2024-03-16T21:17:50.616Z,11.30
2024-03-16T21:20:20.779Z,8.90
2024-03-16T21:22:50.781Z,10.20
2024-03-16T21:25:20.555Z,6.70
2024-03-16T21:27:52.882Z,8.00
2024-03-16T21:30:21.563Z,11.20
2024-03-16T21:32:50.305Z,8.10
2024-03-16T21:35:26.508Z,12.70
2024-03-16T21:37:55.438Z,5.30
2024-03-16T21:40:25.317Z,9.20
2024-03-16T21:42:53.989Z,7.90
2024-03-16T21:45:25.141Z,8.70
2024-03-16T21:47:53.945Z,6.90
2024-03-16T21:50:22.728Z,9.90
2024-03-16T21:52:51.583Z,11.20
2024-03-16T21:55:21.461Z,11.40
2024-03-16T21:57:51.424Z,11.80
2024-03-16T22:00:21.373Z,8.40
2024-03-16T22:02:50.163Z,6.40
2024-03-16T22:05:19.043Z,12.10
2024-03-16T22:07:48.152Z,8.70
2024-03-16T22:10:19.573Z,11.10
2024-03-16T22:12:54.364Z,8.60
2024-03-16T22:15:23.119Z,12.10
2024-03-16T22:17:52.572Z,9.40
2024-03-16T22:20:21.448Z,9.80
2024-03-16T22:22:51.453Z,14.40
2024-03-16T22:25:21.117Z,13.70
2024-03-16T22:27:50.203Z,11.80
2024-03-16T22:30:19.686Z,17.90
2024-03-16T22:32:49.701Z,12.40
2024-03-16T22:35:18.490Z,10.90
2024-03-16T22:37:47.104Z,9.60
2024-03-16T22:40:16.785Z,8.40
2024-03-16T22:42:46.133Z,11.30
2024-03-16T22:45:19.513Z,11.40
2024-03-16T22:47:48.314Z,10.30
2024-03-16T22:50:16.991Z,13.10
2024-03-16T22:52:46.798Z,9.90
2024-03-16T22:55:15.452Z,10.20
2024-03-16T22:57:44.200Z,10.70
2024-03-16T23:00:20.505Z,10.10
2024-03-16T23:02:49.385Z,13.00
2024-03-16T23:05:18.097Z,13.90
2024-03-16T23:07:46.780Z,15.60
2024-03-16T23:10:17.737Z,14.40
2024-03-16T23:12:46.917Z,12.50
2024-03-16T23:15:16.361Z,17.90
2024-03-16T23:17:45.222Z,16.30
2024-03-16T23:20:15.744Z,15.90
2024-03-16T23:22:45.110Z,13.60
2024-03-16T23:25:14.051Z,14.30
2024-03-16T23:27:42.913Z,15.40
2024-03-16T23:30:12.879Z,12.60
2024-03-16T23:32:47.101Z,12.90
2024-03-16T23:35:16.169Z,17.70
2024-03-16T23:37:44.856Z,15.60
2024-03-16T23:40:15.577Z,8.30
2024-03-16T23:42:50.314Z,13.70
2024-03-16T23:45:18.875Z,10.10
2024-03-16T23:47:47.680Z,13.30
2024-03-16T23:50:17.361Z,14.90
2024-03-16T23:52:46.159Z,10.70
2024-03-16T23:55:15.661Z,9.60
2024-03-16T23:57:44.374Z,9.10
